Asherville, Indiana
Current Conditions -  °F | °C
As of 11:53 AM on Tuesday 21 Oct 2014 (Local Time) from KHUF Reporting Station
Overcast Overcast  
Wind Chill: 55°   Ceiling: 4700
Heat Index: 55°   Visibility: 10mi
Dew Point: 42°   Wind: 9mph
Humidity: 62%   Direction: 10°N
Pressure: 30.11"   Gusts: NA
Location:  39.5158°N, 87.1262°W
Report Text: KHUF 211553Z 01008KT 10SM FEW034 OVC047 13/06 A3011 RMK AO2 SLP196 T01280056 $
Loading
Personal Weather Stations






























Interactive Weather Map
Tropical Storm Tracking
New forecast layout! Learn more

10-Day Weather Forecast

Advertisements
Track Severe Weather on mobile